Time;durP1;ratioP1;P1;durP2;ratioP2;P2;SDS_P1;SDS_P2;PMS_P1;PMS_P2;Temp;Humidity;BMP_temperature;BMP_pressure;BME280_temperature;BME280_humidity;BME280_pressure;Samples;Min_cycle;Max_cycle;Signal;HPM_P1;HPM_P2
2022/04/10 00:01:06;;;;;;;10.00;4.45;;;;;;;;;;5025048;28;20037;-64
2022/04/10 00:03:31;;;;;;;15.23;5.28;;;;;;;;;;5026416;28;20483;-62
2022/04/10 00:05:57;;;;;;;10.25;4.82;;;;;;;;;;5029815;28;20038;-62
2022/04/10 00:08:22;;;;;;;9.65;4.47;;;;;;;;;;5011307;28;20042;-64
2022/04/10 00:10:47;;;;;;;10.02;4.60;;;;;;;;;;5012219;28;20479;-64
2022/04/10 00:13:13;;;;;;;8.93;4.85;;;;;;;;;;5026366;28;20026;-64
2022/04/10 00:15:39;;;;;;;11.82;4.72;;;;;;;;;;5026705;28;20037;-63
2022/04/10 00:18:04;;;;;;;8.90;4.10;;;;;;;;;;5017867;28;20383;-64
2022/04/10 00:20:30;;;;;;;11.15;4.32;;;;;;;;;;5018112;28;20176;-63
2022/04/10 00:22:55;;;;;;;8.88;4.20;;;;;;;;;;5031750;28;20049;-64
2022/04/10 00:25:22;;;;;;;9.32;4.20;;;;;;;;;;5027222;28;20080;-63
2022/04/10 00:27:48;;;;;;;9.05;4.50;;;;;;;;;;5018467;28;20119;-64
2022/04/10 00:30:15;;;;;;;10.57;4.60;;;;;;;;;;5023254;28;20462;-64
2022/04/10 00:32:41;;;;;;;9.35;4.35;;;;;;;;;;5029012;28;20052;-64
2022/04/10 00:35:08;;;;;;;11.40;4.35;;;;;;;;;;5019376;28;20480;-64
2022/04/10 00:37:38;;;;;;;11.60;4.50;;;;;;;;;;5015435;28;20172;-64
2022/04/10 00:40:05;;;;;;;12.48;4.90;;;;;;;;;;5021861;28;20045;-64
2022/04/10 00:42:35;;;;;;;12.23;4.60;;;;;;;;;;5033563;28;20104;-64
2022/04/10 00:45:00;;;;;;;10.18;4.10;;;;;;;;;;5018269;28;20037;-63
2022/04/10 00:47:26;;;;;;;10.50;4.30;;;;;;;;;;5014841;28;20030;-64
2022/04/10 00:49:52;;;;;;;11.48;4.78;;;;;;;;;;5022678;28;20406;-64
2022/04/10 00:52:19;;;;;;;13.40;4.72;;;;;;;;;;5034529;28;20030;-64
2022/04/10 00:54:45;;;;;;;9.50;5.25;;;;;;;;;;5029594;28;20029;-64
2022/04/10 00:57:11;;;;;;;11.00;4.72;;;;;;;;;;5033126;28;20040;-64
2022/04/10 00:59:37;;;;;;;12.23;5.13;;;;;;;;;;5028559;28;20079;-66
2022/04/10 01:02:03;;;;;;;13.60;5.35;;;;;;;;;;5031023;28;20536;-63
2022/04/10 01:04:28;;;;;;;12.07;5.00;;;;;;;;;;5019978;28;20047;-64
2022/04/10 01:06:56;;;;;;;15.57;5.65;;;;;;;;;;5018072;28;20109;-64
2022/04/10 01:09:23;;;;;;;9.55;5.28;;;;;;;;;;5026808;28;20037;-64
2022/04/10 01:11:54;;;;;;;14.55;5.40;;;;;;;;;;5024748;28;20030;-64
2022/04/10 01:14:20;;;;;;;14.23;5.63;;;;;;;;;;5024657;28;20021;-64
2022/04/10 01:16:48;;;;;;;14.35;5.00;;;;;;;;;;5033433;28;20045;-63
2022/04/10 01:19:16;;;;;;;13.48;5.72;;;;;;;;;;5025946;28;20033;-63
2022/04/10 01:21:46;;;;;;;10.38;4.82;;;;;;;;;;5015451;28;20057;-63
2022/04/10 01:24:12;;;;;;;15.73;5.47;;;;;;;;;;5030700;28;20475;-63
2022/04/10 01:26:38;;;;;;;10.38;5.10;;;;;;;;;;4997442;28;20034;-63
2022/04/10 01:29:06;;;;;;;9.70;5.28;;;;;;;;;;5028613;28;20033;-63
2022/04/10 01:31:33;;;;;;;12.35;6.45;;;;;;;;;;5028296;28;20115;-63
2022/04/10 01:34:02;;;;;;;15.05;5.50;;;;;;;;;;5018845;28;20479;-63
2022/04/10 01:36:29;;;;;;;10.38;5.57;;;;;;;;;;5024982;28;20490;-64
2022/04/10 01:38:56;;;;;;;14.27;5.68;;;;;;;;;;5032984;28;20112;-63
2022/04/10 01:41:24;;;;;;;11.50;5.30;;;;;;;;;;5024476;28;20044;-63
2022/04/10 01:43:50;;;;;;;13.50;5.63;;;;;;;;;;5022331;28;20041;-63
2022/04/10 01:46:16;;;;;;;8.23;5.07;;;;;;;;;;5017852;28;20029;-63
2022/04/10 01:48:42;;;;;;;14.93;5.65;;;;;;;;;;5031657;28;20041;-63
2022/04/10 01:51:08;;;;;;;10.73;5.63;;;;;;;;;;5030002;28;20030;-63
2022/04/10 01:53:34;;;;;;;10.13;6.03;;;;;;;;;;5018125;28;20045;-63
2022/04/10 01:56:00;;;;;;;13.77;6.18;;;;;;;;;;5028405;28;20037;-63
2022/04/10 01:58:26;;;;;;;14.60;6.30;;;;;;;;;;5020869;28;20044;-63
2022/04/10 02:00:51;;;;;;;14.05;6.13;;;;;;;;;;5033336;28;20104;-63
2022/04/10 02:03:17;;;;;;;15.73;5.93;;;;;;;;;;5032990;28;20064;-63
2022/04/10 02:05:42;;;;;;;13.05;5.78;;;;;;;;;;5019850;28;20414;-63
2022/04/10 02:08:07;;;;;;;14.30;6.93;;;;;;;;;;5016567;28;20144;-63
2022/04/10 02:10:34;;;;;;;17.65;6.07;;;;;;;;;;5019668;28;20052;-63
2022/04/10 02:12:59;;;;;;;11.15;5.93;;;;;;;;;;5020222;28;20033;-64
2022/04/10 02:15:25;;;;;;;16.00;6.47;;;;;;;;;;5026608;28;20037;-63
2022/04/10 02:17:50;;;;;;;15.85;6.60;;;;;;;;;;5015894;28;20142;-63
2022/04/10 02:20:15;;;;;;;13.07;6.55;;;;;;;;;;5031375;28;20391;-63
2022/04/10 02:22:41;;;;;;;13.38;6.45;;;;;;;;;;5026546;28;20034;-64
2022/04/10 02:25:07;;;;;;;16.83;7.03;;;;;;;;;;5018982;28;20467;-63
2022/04/10 02:27:33;;;;;;;14.00;6.85;;;;;;;;;;5032788;28;20639;-63
2022/04/10 02:29:59;;;;;;;13.32;6.75;;;;;;;;;;5014146;28;20087;-64
2022/04/10 02:32:24;;;;;;;13.85;6.88;;;;;;;;;;5032540;28;20022;-63
2022/04/10 02:34:49;;;;;;;15.65;6.93;;;;;;;;;;5015343;28;20212;-64
2022/04/10 02:37:15;;;;;;;14.65;7.25;;;;;;;;;;5026445;28;20117;-64
2022/04/10 02:39:40;;;;;;;20.73;7.38;;;;;;;;;;5013017;28;20030;-64
2022/04/10 02:42:06;;;;;;;17.58;7.30;;;;;;;;;;5011237;28;20030;-63
2022/04/10 02:44:31;;;;;;;14.20;6.88;;;;;;;;;;5014067;28;20475;-63
2022/04/10 02:46:57;;;;;;;15.93;6.80;;;;;;;;;;5021263;28;20523;-63
2022/04/10 02:49:22;;;;;;;18.35;6.90;;;;;;;;;;5030701;28;20135;-63
2022/04/10 02:51:49;;;;;;;17.00;7.55;;;;;;;;;;5015634;28;20060;-64
2022/04/10 02:54:16;;;;;;;14.32;7.47;;;;;;;;;;5023703;28;20049;-64
2022/04/10 02:56:41;;;;;;;16.27;7.03;;;;;;;;;;5030148;28;20037;-64
2022/04/10 02:59:08;;;;;;;17.65;7.75;;;;;;;;;;5019341;28;20033;-65
2022/04/10 03:01:34;;;;;;;18.52;7.63;;;;;;;;;;5026509;28;20030;-64
2022/04/10 03:03:59;;;;;;;21.52;8.02;;;;;;;;;;5028977;28;20037;-64
2022/04/10 03:06:24;;;;;;;14.90;7.75;;;;;;;;;;5025920;28;20060;-64
2022/04/10 03:08:50;;;;;;;17.42;8.23;;;;;;;;;;5021796;28;20029;-64
2022/04/10 03:11:16;;;;;;;16.95;8.43;;;;;;;;;;5010914;28;20033;-64
2022/04/10 03:13:41;;;;;;;22.52;7.63;;;;;;;;;;5013415;28;20025;-64
2022/04/10 03:16:07;;;;;;;19.20;7.70;;;;;;;;;;5026636;28;20060;-64
2022/04/10 03:18:32;;;;;;;18.88;7.50;;;;;;;;;;5023396;28;20493;-64
2022/04/10 03:20:57;;;;;;;20.20;8.00;;;;;;;;;;5031919;28;20080;-64
2022/04/10 03:23:23;;;;;;;16.88;7.70;;;;;;;;;;5010777;28;20042;-64
2022/04/10 03:25:48;;;;;;;16.23;7.40;;;;;;;;;;5013218;28;20034;-64
2022/04/10 03:28:13;;;;;;;15.15;7.18;;;;;;;;;;5020790;28;20029;-64
2022/04/10 03:30:44;;;;;;;14.07;7.45;;;;;;;;;;5031410;28;20979;-64
2022/04/10 03:33:10;;;;;;;13.30;7.07;;;;;;;;;;5017822;28;20432;-64
2022/04/10 03:35:35;;;;;;;14.00;7.30;;;;;;;;;;5030310;28;20075;-64
2022/04/10 03:38:01;;;;;;;13.45;7.80;;;;;;;;;;5012162;28;20083;-64
2022/04/10 03:40:47;;;;;;;13.70;7.53;;;;;;;;;;5012228;28;20037;-65
2022/04/10 03:43:12;;;;;;;13.27;7.28;;;;;;;;;;5024754;28;20134;-63
2022/04/10 03:45:38;;;;;;;16.42;8.00;;;;;;;;;;5013385;28;20124;-64
2022/04/10 03:48:05;;;;;;;17.20;8.13;;;;;;;;;;5011403;28;20091;-64
2022/04/10 03:50:31;;;;;;;20.42;7.78;;;;;;;;;;5030158;28;20485;-63
2022/04/10 03:52:56;;;;;;;20.88;7.97;;;;;;;;;;5029486;28;20116;-64
2022/04/10 03:55:22;;;;;;;21.80;8.25;;;;;;;;;;5025859;28;20038;-63
2022/04/10 03:57:47;;;;;;;12.07;7.30;;;;;;;;;;5029283;28;20028;-64
2022/04/10 04:00:13;;;;;;;15.13;7.85;;;;;;;;;;5014360;28;20099;-65
2022/04/10 04:02:42;;;;;;;12.82;7.47;;;;;;;;;;5017829;28;20040;-64
2022/04/10 04:05:09;;;;;;;17.80;7.75;;;;;;;;;;5021580;28;20033;-64
2022/04/10 04:07:35;;;;;;;15.23;8.20;;;;;;;;;;5029338;28;20140;-64
2022/04/10 04:10:00;;;;;;;20.58;8.27;;;;;;;;;;5020462;28;20113;-64
2022/04/10 04:12:25;;;;;;;17.60;8.65;;;;;;;;;;5012283;28;20411;-64
2022/04/10 04:14:51;;;;;;;17.80;8.45;;;;;;;;;;5020826;28;20121;-64
2022/04/10 04:17:16;;;;;;;17.20;8.25;;;;;;;;;;5030526;28;20476;-63
2022/04/10 04:19:41;;;;;;;17.38;8.77;;;;;;;;;;5016076;28;20633;-64
2022/04/10 04:22:07;;;;;;;16.23;8.63;;;;;;;;;;5026175;28;20159;-64
2022/04/10 04:24:33;;;;;;;18.48;8.90;;;;;;;;;;5029139;28;20356;-64
2022/04/10 04:26:58;;;;;;;19.65;8.98;;;;;;;;;;5018697;28;20073;-64
2022/04/10 04:29:23;;;;;;;16.63;8.52;;;;;;;;;;5016854;28;20036;-64
2022/04/10 04:31:49;;;;;;;17.33;8.52;;;;;;;;;;5027281;28;20387;-65
2022/04/10 04:34:14;;;;;;;16.48;8.70;;;;;;;;;;5011699;28;20030;-64
2022/04/10 04:36:40;;;;;;;16.95;9.10;;;;;;;;;;5013078;28;20029;-64
2022/04/10 04:39:05;;;;;;;17.52;8.45;;;;;;;;;;5029393;28;20529;-64
2022/04/10 04:41:31;;;;;;;19.92;8.70;;;;;;;;;;5025283;28;20064;-64
2022/04/10 04:43:57;;;;;;;19.23;8.73;;;;;;;;;;5026815;28;20036;-64
2022/04/10 04:46:22;;;;;;;18.83;8.60;;;;;;;;;;5015764;28;20037;-64
2022/04/10 04:48:47;;;;;;;17.05;8.77;;;;;;;;;;5026143;28;20423;-65
2022/04/10 04:51:14;;;;;;;17.45;8.32;;;;;;;;;;5022125;28;20029;-64
2022/04/10 04:53:40;;;;;;;17.15;8.65;;;;;;;;;;5013691;28;20061;-64
2022/04/10 04:56:05;;;;;;;18.13;7.95;;;;;;;;;;5027118;28;20069;-64
2022/04/10 04:58:30;;;;;;;17.10;8.75;;;;;;;;;;5027113;28;20036;-64
2022/04/10 05:00:56;;;;;;;15.60;8.43;;;;;;;;;;5013671;28;20435;-64
2022/04/10 05:03:21;;;;;;;19.00;8.50;;;;;;;;;;5028087;28;20037;-64
2022/04/10 05:05:47;;;;;;;19.13;8.93;;;;;;;;;;5030693;28;20025;-65
2022/04/10 05:08:12;;;;;;;14.20;7.93;;;;;;;;;;5027603;28;20030;-65
2022/04/10 05:10:37;;;;;;;18.60;8.63;;;;;;;;;;5028302;28;20040;-64
2022/04/10 05:13:08;;;;;;;17.15;8.95;;;;;;;;;;5020363;28;20030;-64
2022/04/10 05:15:34;;;;;;;16.50;8.50;;;;;;;;;;5023963;28;20115;-65
2022/04/10 05:17:59;;;;;;;18.50;9.10;;;;;;;;;;5029151;28;20081;-65
2022/04/10 05:20:25;;;;;;;16.70;7.95;;;;;;;;;;5023605;28;20046;-65
2022/04/10 05:22:50;;;;;;;20.23;8.95;;;;;;;;;;5024820;28;20025;-64
2022/04/10 05:25:16;;;;;;;16.90;8.20;;;;;;;;;;5032202;28;20033;-65
2022/04/10 05:27:41;;;;;;;15.23;8.07;;;;;;;;;;5024167;28;20529;-65
2022/04/10 05:30:07;;;;;;;19.60;8.40;;;;;;;;;;5032965;28;20029;-65
2022/04/10 05:32:32;;;;;;;16.88;8.35;;;;;;;;;;5027301;28;20033;-64
2022/04/10 05:34:58;;;;;;;23.15;9.90;;;;;;;;;;5033091;28;20021;-65
2022/04/10 05:37:23;;;;;;;18.35;8.98;;;;;;;;;;5032797;28;20079;-65
2022/04/10 05:39:49;;;;;;;18.75;8.57;;;;;;;;;;5027852;28;20040;-65
2022/04/10 05:42:14;;;;;;;15.57;8.70;;;;;;;;;;5030719;28;20080;-65
2022/04/10 05:44:39;;;;;;;22.48;10.75;;;;;;;;;;5012994;28;20033;-65
2022/04/10 05:47:05;;;;;;;22.08;10.75;;;;;;;;;;5033287;28;20411;-65
2022/04/10 05:49:31;;;;;;;20.58;9.55;;;;;;;;;;5031765;28;20395;-65
2022/04/10 05:51:56;;;;;;;18.30;8.82;;;;;;;;;;5032682;28;20087;-64
2022/04/10 05:54:22;;;;;;;12.82;6.80;;;;;;;;;;5024303;28;20038;-65
2022/04/10 05:56:48;;;;;;;18.75;8.45;;;;;;;;;;5029551;28;20040;-65
2022/04/10 05:59:13;;;;;;;18.73;10.10;;;;;;;;;;5023802;28;20034;-65
2022/04/10 06:01:39;;;;;;;20.23;8.30;;;;;;;;;;5025982;28;20083;-64
2022/04/10 06:04:04;;;;;;;12.77;5.80;;;;;;;;;;5033716;28;20036;-66
2022/04/10 06:06:29;;;;;;;20.65;8.23;;;;;;;;;;5030882;28;20036;-66
2022/04/10 06:08:55;;;;;;;14.48;8.18;;;;;;;;;;5031236;28;20026;-64
2022/04/10 06:11:21;;;;;;;16.23;7.68;;;;;;;;;;5021720;28;20399;-65
2022/04/10 06:13:46;;;;;;;17.67;7.95;;;;;;;;;;5030880;28;20479;-66
2022/04/10 06:16:12;;;;;;;17.50;7.78;;;;;;;;;;5014109;28;20034;-66
2022/04/10 06:18:37;;;;;;;18.60;7.65;;;;;;;;;;5013728;28;20475;-65
2022/04/10 06:21:02;;;;;;;17.58;6.47;;;;;;;;;;5013798;28;20052;-66
2022/04/10 06:23:28;;;;;;;16.75;7.82;;;;;;;;;;5013433;28;20049;-66
2022/04/10 06:25:53;;;;;;;14.45;6.95;;;;;;;;;;5013412;28;20033;-65
2022/04/10 06:28:19;;;;;;;12.13;7.20;;;;;;;;;;5014300;28;20391;-64
2022/04/10 06:30:45;;;;;;;20.08;8.45;;;;;;;;;;5012973;28;20084;-65
2022/04/10 06:33:12;;;;;;;22.92;9.73;;;;;;;;;;5013269;28;20034;-65
2022/04/10 06:35:39;;;;;;;15.43;7.78;;;;;;;;;;5019930;28;20053;-65
2022/04/10 06:38:04;;;;;;;16.42;7.47;;;;;;;;;;5033600;28;20029;-65
2022/04/10 06:40:30;;;;;;;16.38;7.75;;;;;;;;;;5028893;28;20098;-65
2022/04/10 06:42:55;;;;;;;16.95;8.13;;;;;;;;;;5032302;28;20033;-65
2022/04/10 06:45:21;;;;;;;14.00;7.30;;;;;;;;;;5024372;28;20041;-65
2022/04/10 06:47:46;;;;;;;18.58;7.43;;;;;;;;;;5024064;28;20061;-65
2022/04/10 06:50:12;;;;;;;16.02;7.65;;;;;;;;;;5024144;28;20040;-66
2022/04/10 06:52:38;;;;;;;15.18;7.43;;;;;;;;;;5012459;28;20045;-65
2022/04/10 06:55:04;;;;;;;16.35;7.75;;;;;;;;;;5016013;28;20495;-65
2022/04/10 06:57:29;;;;;;;15.00;7.47;;;;;;;;;;5012843;28;20058;-64
2022/04/10 06:59:55;;;;;;;11.00;5.85;;;;;;;;;;5016684;28;20080;-65
2022/04/10 07:02:20;;;;;;;18.40;7.38;;;;;;;;;;5028808;28;20060;-65
2022/04/10 07:04:46;;;;;;;17.05;6.95;;;;;;;;;;5027510;28;20038;-66
2022/04/10 07:07:11;;;;;;;14.70;7.70;;;;;;;;;;5011706;28;20062;-65
2022/04/10 07:09:37;;;;;;;11.07;4.93;;;;;;;;;;5011924;28;20042;-64
2022/04/10 07:12:03;;;;;;;13.20;6.50;;;;;;;;;;5012373;28;20029;-64
2022/04/10 07:14:28;;;;;;;16.45;6.75;;;;;;;;;;5027293;28;20035;-64
2022/04/10 07:16:53;;;;;;;14.27;6.35;;;;;;;;;;5029848;28;20552;-65
2022/04/10 07:19:19;;;;;;;11.00;6.25;;;;;;;;;;5018099;28;20041;-64
2022/04/10 07:24:28;;;;;;;12.63;5.68;;;;;;;;;;5024496;28;20056;-65
2022/04/10 07:26:54;;;;;;;15.82;7.45;;;;;;;;;;5014010;28;20399;-66
2022/04/10 07:29:21;;;;;;;12.50;5.30;;;;;;;;;;5013411;28;20092;-63
2022/04/10 07:31:46;;;;;;;14.18;6.80;;;;;;;;;;5026227;28;20033;-64
2022/04/10 07:34:12;;;;;;;15.48;7.57;;;;;;;;;;5032557;28;20037;-64
2022/04/10 07:36:37;;;;;;;16.33;6.90;;;;;;;;;;5027719;28;20037;-64
2022/04/10 07:39:03;;;;;;;12.93;5.93;;;;;;;;;;5024069;28;20053;-65
2022/04/10 07:41:28;;;;;;;15.55;6.00;;;;;;;;;;5016121;28;20030;-64
2022/04/10 07:43:54;;;;;;;10.07;5.45;;;;;;;;;;5033127;28;20429;-64
2022/04/10 07:49:03;;;;;;;11.93;5.00;;;;;;;;;;5014483;28;20044;-63
2022/04/10 07:51:29;;;;;;;12.25;5.32;;;;;;;;;;5018794;28;20390;-65
2022/04/10 07:53:56;;;;;;;8.80;5.20;;;;;;;;;;5016859;28;20499;-64
2022/04/10 07:56:23;;;;;;;14.82;5.55;;;;;;;;;;5030694;28;20064;-63
2022/04/10 07:58:49;;;;;;;11.98;5.18;;;;;;;;;;5030911;28;20034;-63
2022/04/10 08:01:14;;;;;;;10.25;5.40;;;;;;;;;;5014219;28;20068;-62
2022/04/10 08:03:39;;;;;;;10.25;3.90;;;;;;;;;;5011160;28;20033;-63
2022/04/10 08:06:05;;;;;;;8.38;3.58;;;;;;;;;;5011663;28;20029;-62
2022/04/10 08:08:30;;;;;;;6.10;3.13;;;;;;;;;;5012100;28;20022;-63
2022/04/10 08:10:56;;;;;;;8.85;3.25;;;;;;;;;;5016373;28;20097;-63
2022/04/10 08:13:21;;;;;;;5.95;2.45;;;;;;;;;;5031315;28;20041;-63
2022/04/10 08:15:48;;;;;;;9.60;3.33;;;;;;;;;;5018774;28;20040;-63
2022/04/10 08:18:13;;;;;;;9.77;3.55;;;;;;;;;;5013491;28;20038;-63
2022/04/10 08:20:39;;;;;;;6.60;2.65;;;;;;;;;;5026290;28;20490;-62
2022/04/10 08:23:05;;;;;;;6.25;2.13;;;;;;;;;;5040736;28;20037;-64
2022/04/10 08:25:30;;;;;;;12.48;3.17;;;;;;;;;;5027037;28;20126;-63
2022/04/10 08:27:55;;;;;;;5.05;2.13;;;;;;;;;;5016775;28;20028;-64
2022/04/10 08:30:21;;;;;;;8.82;3.00;;;;;;;;;;5025800;28;20038;-63
2022/04/10 08:32:47;;;;;;;9.82;3.35;;;;;;;;;;5022484;28;20037;-65
2022/04/10 08:35:13;;;;;;;8.57;2.92;;;;;;;;;;5011628;28;20041;-64
2022/04/10 08:37:39;;;;;;;6.85;3.20;;;;;;;;;;5017811;28;20446;-63
2022/04/10 08:40:06;;;;;;;5.45;2.45;;;;;;;;;;5011308;28;20472;-64
2022/04/10 08:42:32;;;;;;;8.25;2.60;;;;;;;;;;5021492;28;20034;-64
2022/04/10 08:44:58;;;;;;;7.63;2.45;;;;;;;;;;5028904;28;20950;-64
2022/04/10 08:47:25;;;;;;;12.13;3.03;;;;;;;;;;5011427;28;20034;-64
2022/04/10 08:49:52;;;;;;;9.05;2.90;;;;;;;;;;5011754;28;20037;-64
2022/04/10 08:52:20;;;;;;;9.50;2.50;;;;;;;;;;5031533;28;20033;-64
2022/04/10 08:54:47;;;;;;;6.35;2.55;;;;;;;;;;5018573;28;20494;-64
2022/04/10 08:57:13;;;;;;;6.25;2.28;;;;;;;;;;5021548;28;20474;-63
2022/04/10 08:59:40;;;;;;;7.32;2.50;;;;;;;;;;5033513;28;20101;-64
2022/04/10 09:02:06;;;;;;;6.65;2.70;;;;;;;;;;5016994;28;20037;-63
2022/04/10 09:04:32;;;;;;;9.73;2.92;;;;;;;;;;5015239;28;20056;-63
2022/04/10 09:07:07;;;;;;;8.48;2.70;;;;;;;;;;5029276;28;20029;-63
2022/04/10 09:09:35;;;;;;;7.18;2.72;;;;;;;;;;5034414;28;20033;-63
2022/04/10 09:12:01;;;;;;;9.50;2.83;;;;;;;;;;5021116;28;20056;-64
2022/04/10 09:14:29;;;;;;;6.47;3.38;;;;;;;;;;5034972;28;20029;-63
2022/04/10 09:17:12;;;;;;;10.80;3.70;;;;;;;;;;5033884;28;20037;-63
2022/04/10 09:19:46;;;;;;;12.23;3.97;;;;;;;;;;5031962;28;20040;-64
2022/04/10 09:22:26;;;;;;;9.45;3.42;;;;;;;;;;5017675;28;20491;-64
2022/04/10 09:25:14;;;;;;;6.32;3.17;;;;;;;;;;5027643;28;20026;-63
2022/04/10 09:27:47;;;;;;;7.35;3.10;;;;;;;;;;5020056;28;20033;-64
2022/04/10 09:30:17;;;;;;;10.25;3.17;;;;;;;;;;5034024;28;20029;-63
2022/04/10 09:32:52;;;;;;;8.20;3.30;;;;;;;;;;5032621;28;20036;-63
2022/04/10 09:35:20;;;;;;;8.95;3.30;;;;;;;;;;5031558;28;20038;-64
2022/04/10 09:37:54;;;;;;;10.40;3.50;;;;;;;;;;5033107;28;20044;-64
2022/04/10 09:40:33;;;;;;;7.05;2.45;;;;;;;;;;5029828;28;20038;-63
2022/04/10 09:43:05;;;;;;;10.43;3.28;;;;;;;;;;5019400;28;20114;-63
2022/04/10 09:45:34;;;;;;;7.18;2.75;;;;;;;;;;5029901;28;20386;-63
2022/04/10 09:48:20;;;;;;;8.75;2.88;;;;;;;;;;5013831;28;20104;-63
2022/04/10 09:50:47;;;;;;;6.85;2.50;;;;;;;;;;5025188;28;20083;-63
2022/04/10 09:53:13;;;;;;;4.57;2.05;;;;;;;;;;5023562;28;20036;-63
2022/04/10 09:55:40;;;;;;;5.95;2.25;;;;;;;;;;5016837;28;20042;-64
2022/04/10 09:58:09;;;;;;;6.95;2.10;;;;;;;;;;5017140;28;20114;-62
2022/04/10 10:00:45;;;;;;;6.40;2.00;;;;;;;;;;5026766;28;20037;-63
2022/04/10 10:03:11;;;;;;;8.25;1.90;;;;;;;;;;5018336;28;20029;-64
2022/04/10 10:05:37;;;;;;;10.27;2.08;;;;;;;;;;5015435;28;20384;-64
2022/04/10 10:08:04;;;;;;;3.67;1.80;;;;;;;;;;5012892;28;20129;-63
2022/04/10 10:10:32;;;;;;;3.83;1.80;;;;;;;;;;5030323;28;20103;-64
2022/04/10 10:13:00;;;;;;;4.65;2.00;;;;;;;;;;5031374;28;20168;-64
2022/04/10 10:15:26;;;;;;;5.47;2.47;;;;;;;;;;5013855;28;20502;-63
2022/04/10 10:17:54;;;;;;;4.40;2.10;;;;;;;;;;5030830;28;20391;-64
2022/04/10 10:20:23;;;;;;;4.18;2.03;;;;;;;;;;5030770;28;20112;-63
2022/04/10 10:22:50;;;;;;;4.82;1.65;;;;;;;;;;5011465;28;20141;-64
2022/04/10 10:25:24;;;;;;;5.63;1.42;;;;;;;;;;5014655;28;20033;-63
2022/04/10 10:28:11;;;;;;;2.72;1.50;;;;;;;;;;5011926;28;20430;-63
2022/04/10 10:31:04;;;;;;;1.90;1.20;;;;;;;;;;5018437;28;20034;-63
2022/04/10 10:33:30;;;;;;;5.38;1.70;;;;;;;;;;5033186;28;20480;-63
2022/04/10 10:35:58;;;;;;;3.50;1.60;;;;;;;;;;5031402;28;20360;-63
2022/04/10 10:38:31;;;;;;;2.22;1.50;;;;;;;;;;5026520;28;20030;-63
2022/04/10 10:41:30;;;;;;;4.63;1.75;;;;;;;;;;5021502;28;20136;-63
2022/04/10 10:43:56;;;;;;;4.53;1.80;;;;;;;;;;5023883;28;20034;-63
2022/04/10 10:46:26;;;;;;;5.60;1.98;;;;;;;;;;5032601;28;20025;-63
2022/04/10 10:49:15;;;;;;;2.05;1.33;;;;;;;;;;5031142;28;20054;-64
2022/04/10 10:51:43;;;;;;;2.95;1.42;;;;;;;;;;5039827;28;20033;-64
2022/04/10 10:54:12;;;;;;;3.38;1.40;;;;;;;;;;5030344;28;20025;-64
2022/04/10 10:56:40;;;;;;;8.95;1.55;;;;;;;;;;5031724;28;20339;-63
2022/04/10 10:59:30;;;;;;;4.78;1.60;;;;;;;;;;5041041;28;20068;-64
2022/04/10 11:02:07;;;;;;;4.65;1.70;;;;;;;;;;5024435;28;20065;-64
2022/04/10 11:04:44;;;;;;;4.30;1.50;;;;;;;;;;5011946;28;20034;-63
2022/04/10 11:07:27;;;;;;;4.60;1.60;;;;;;;;;;5028012;28;20029;-63
2022/04/10 11:10:03;;;;;;;2.83;1.23;;;;;;;;;;5017421;28;20120;-63
2022/04/10 11:12:53;;;;;;;5.50;1.55;;;;;;;;;;5029931;28;20030;-63
2022/04/10 11:15:23;;;;;;;3.80;1.52;;;;;;;;;;4994690;28;20050;-63
2022/04/10 11:17:50;;;;;;;4.47;1.45;;;;;;;;;;4985848;28;20419;-62
2022/04/10 11:20:24;;;;;;;3.53;1.40;;;;;;;;;;5006651;28;20070;-63
2022/04/10 11:22:52;;;;;;;4.15;1.30;;;;;;;;;;5008975;28;20135;-63
2022/04/10 11:25:19;;;;;;;3.00;1.38;;;;;;;;;;4976567;28;20038;-63
2022/04/10 11:27:53;;;;;;;2.38;1.20;;;;;;;;;;4990357;28;20049;-64
2022/04/10 11:30:45;;;;;;;3.33;1.10;;;;;;;;;;4995472;28;20034;-64
2022/04/10 11:33:20;;;;;;;2.47;1.08;;;;;;;;;;5006824;28;20050;-63
2022/04/10 11:35:56;;;;;;;2.55;1.23;;;;;;;;;;5009368;28;20116;-63
2022/04/10 11:38:23;;;;;;;3.47;1.40;;;;;;;;;;4991680;28;20030;-63
2022/04/10 11:40:52;;;;;;;3.22;1.35;;;;;;;;;;4989435;28;20523;-64
2022/04/10 11:43:21;;;;;;;5.18;1.67;;;;;;;;;;4974355;28;20037;-63
2022/04/10 11:45:48;;;;;;;3.22;1.30;;;;;;;;;;5021326;28;20064;-63
2022/04/10 11:48:14;;;;;;;3.47;1.40;;;;;;;;;;4995949;28;20038;-64
2022/04/10 11:50:39;;;;;;;3.03;1.25;;;;;;;;;;4990572;28;20030;-64
2022/04/10 11:53:12;;;;;;;2.08;1.20;;;;;;;;;;5011497;28;20052;-64
2022/04/10 11:55:48;;;;;;;3.13;1.27;;;;;;;;;;5010951;28;20088;-63
2022/04/10 11:58:19;;;;;;;2.60;1.20;;;;;;;;;;5018655;28;20420;-63
2022/04/10 12:01:01;;;;;;;5.53;1.38;;;;;;;;;;5037872;28;20033;-63
2022/04/10 12:03:29;;;;;;;3.00;1.52;;;;;;;;;;5037260;28;20124;-64
2022/04/10 12:05:55;;;;;;;3.20;1.40;;;;;;;;;;5011155;28;20041;-64
2022/04/10 12:08:23;;;;;;;2.35;1.00;;;;;;;;;;5013132;28;20483;-64
2022/04/10 12:10:59;;;;;;;2.33;1.20;;;;;;;;;;5020806;28;20104;-63
2022/04/10 12:13:39;;;;;;;4.60;1.35;;;;;;;;;;5012446;28;20029;-64
2022/04/10 12:16:16;;;;;;;2.28;1.35;;;;;;;;;;5011031;28;20057;-64
2022/04/10 12:18:53;;;;;;;2.80;1.10;;;;;;;;;;5016519;28;20336;-64
2022/04/10 12:21:19;;;;;;;3.40;1.30;;;;;;;;;;5011481;28;20100;-63
2022/04/10 12:23:48;;;;;;;4.50;1.35;;;;;;;;;;5013882;28;20044;-63
2022/04/10 12:26:14;;;;;;;2.80;1.27;;;;;;;;;;5038024;28;20021;-63
2022/04/10 12:28:44;;;;;;;1.55;1.25;;;;;;;;;;5054285;28;20037;-63
2022/04/10 12:31:11;;;;;;;3.33;1.60;;;;;;;;;;5049264;28;20068;-63
2022/04/10 12:33:37;;;;;;;2.08;1.20;;;;;;;;;;5038284;28;20065;-63
2022/04/10 12:36:24;;;;;;;4.65;1.50;;;;;;;;;;5047553;28;20068;-63
2022/04/10 12:38:55;;;;;;;2.40;1.10;;;;;;;;;;5037897;28;20116;-63
2022/04/10 12:41:34;;;;;;;6.03;1.15;;;;;;;;;;5037296;28;20065;-63
2022/04/10 12:44:04;;;;;;;2.03;1.10;;;;;;;;;;5037322;28;20355;-63
2022/04/10 12:46:34;;;;;;;5.38;1.40;;;;;;;;;;5037330;28;20083;-64
2022/04/10 12:49:13;;;;;;;2.88;1.33;;;;;;;;;;5036960;28;20111;-64
2022/04/10 12:51:54;;;;;;;3.42;1.35;;;;;;;;;;5035764;28;20030;-63
2022/04/10 12:54:40;;;;;;;2.75;1.38;;;;;;;;;;5038095;28;20083;-65
2022/04/10 12:57:10;;;;;;;1.67;1.20;;;;;;;;;;5032570;28;20048;-64
2022/04/10 12:59:50;;;;;;;2.17;1.23;;;;;;;;;;5038304;28;20490;-64
2022/04/10 13:02:29;;;;;;;4.22;1.30;;;;;;;;;;5036711;28;20083;-64
2022/04/10 13:05:02;;;;;;;4.10;1.30;;;;;;;;;;5037082;28;20025;-64
2022/04/10 13:07:29;;;;;;;3.38;1.40;;;;;;;;;;5037610;28;20032;-63
2022/04/10 13:10:00;;;;;;;2.78;1.40;;;;;;;;;;5037236;28;20029;-64
2022/04/10 13:12:27;;;;;;;3.78;1.30;;;;;;;;;;5037071;28;20033;-63
2022/04/10 13:15:27;;;;;;;3.95;1.60;;;;;;;;;;5036514;28;20061;-64
2022/04/10 13:17:56;;;;;;;2.80;1.20;;;;;;;;;;5019056;28;20120;-64
2022/04/10 13:20:24;;;;;;;3.50;1.40;;;;;;;;;;5017624;28;20041;-64
2022/04/10 13:22:50;;;;;;;2.95;1.30;;;;;;;;;;5017511;28;20034;-64
2022/04/10 13:25:16;;;;;;;2.10;1.20;;;;;;;;;;5032042;28;20032;-64
2022/04/10 13:27:42;;;;;;;2.10;1.20;;;;;;;;;;5038659;28;20025;-64
2022/04/10 13:30:07;;;;;;;2.13;1.30;;;;;;;;;;5024422;28;20398;-64
2022/04/10 13:32:33;;;;;;;1.75;1.10;;;;;;;;;;5030704;28;20037;-63
2022/04/10 13:34:58;;;;;;;2.67;1.30;;;;;;;;;;5036779;28;20045;-63
2022/04/10 13:37:26;;;;;;;2.38;1.15;;;;;;;;;;5037075;28;20025;-63
2022/04/10 13:39:52;;;;;;;1.27;1.13;;;;;;;;;;5026379;28;20034;-64
2022/04/10 13:42:18;;;;;;;2.40;1.08;;;;;;;;;;5016924;28;20087;-64
2022/04/10 13:44:43;;;;;;;1.77;1.10;;;;;;;;;;5022751;28;20034;-64
2022/04/10 13:47:09;;;;;;;3.90;1.20;;;;;;;;;;5012426;28;20030;-65
2022/04/10 13:49:34;;;;;;;2.05;1.20;;;;;;;;;;5014474;28;20526;-65
2022/04/10 13:52:00;;;;;;;3.15;1.30;;;;;;;;;;5013088;28;20495;-64
2022/04/10 13:54:26;;;;;;;2.22;1.17;;;;;;;;;;5027991;28;20041;-64
2022/04/10 13:56:52;;;;;;;1.20;1.05;;;;;;;;;;5053501;28;20040;-64
2022/04/10 13:59:17;;;;;;;2.38;1.20;;;;;;;;;;5038086;28;20084;-64
2022/04/10 14:01:43;;;;;;;3.97;1.48;;;;;;;;;;5026136;28;20045;-64
2022/04/10 14:04:08;;;;;;;2.80;1.50;;;;;;;;;;5026072;28;20109;-65
2022/04/10 14:06:34;;;;;;;4.40;1.20;;;;;;;;;;5029455;28;20101;-64
2022/04/10 14:08:59;;;;;;;3.47;1.40;;;;;;;;;;5043893;28;20459;-65
2022/04/10 14:11:29;;;;;;;2.35;1.30;;;;;;;;;;5053792;28;20446;-64
2022/04/10 14:13:57;;;;;;;1.65;1.08;;;;;;;;;;5041120;28;20479;-64
2022/04/10 14:16:23;;;;;;;1.80;1.10;;;;;;;;;;5033102;28;20069;-63
2022/04/10 14:18:48;;;;;;;3.03;1.40;;;;;;;;;;5034008;28;20076;-63
2022/04/10 14:21:14;;;;;;;2.40;1.10;;;;;;;;;;5032437;28;20047;-64
2022/04/10 14:23:40;;;;;;;2.08;1.10;;;;;;;;;;5033463;28;20041;-64
2022/04/10 14:26:08;;;;;;;2.53;1.23;;;;;;;;;;5041096;28;20026;-64
2022/04/10 14:28:38;;;;;;;3.75;1.70;;;;;;;;;;5013600;28;20522;-61
2022/04/10 14:31:05;;;;;;;2.88;1.20;;;;;;;;;;5015419;28;20060;-62
2022/04/10 14:33:32;;;;;;;1.85;0.90;;;;;;;;;;5033435;28;20029;-61
2022/04/10 14:35:58;;;;;;;2.97;0.90;;;;;;;;;;5031663;28;20033;-61
2022/04/10 14:38:23;;;;;;;2.13;0.95;;;;;;;;;;5034204;28;20040;-60
2022/04/10 14:40:48;;;;;;;4.18;1.05;;;;;;;;;;5042494;28;20033;-61
2022/04/10 14:43:14;;;;;;;1.33;0.93;;;;;;;;;;5032337;28;20025;-64
2022/04/10 14:45:40;;;;;;;3.08;1.10;;;;;;;;;;5036478;28;20052;-63